General Aviation Weather

Text Reports

Enter one or more of the following location identifiers separated by a space:

Zip Code, Four-Character ICAO or Three-Character IATA airport codes.

METAR - Aviation Routine Weather Report
LLET - Eilat,
Updated at 3:50 AM GMT on September 02, 2014 (6:50 AM IDT):
METAR LLET 020350Z 03006KT CAVOK 28/17 Q1009
TAF - Terminal Area Forecast
LLET - Eilat,
Updated at 3:50 AM GMT on September 02, 2014 (6:50 AM IDT):
TAF LLET 020306Z 0203/0224 04008KT CAVOK
      BECMG 0206/0208 04016KT
      BECMG 0218/0220 04010KT TX38/0213Z TN26/0203Z=
Decoded:
ID: LLET   Elat/J. Hozman, IS
REPORT TIME:  2  3: 6
VALID TIME: 2 September AT 03:00Z to 2 September AT 24:00Z.
INITIAL WX
   WINDS: 40 AT 8
   WEATHER: CAVOK
WX BECOMING FROM 06Z TO 08Z
   WINDS: 40 AT 16
WX BECOMING FROM 18Z TO 20Z
   WINDS: 40 AT 10
   COMMENTS: TX38/0213Z TN26/0203Z= 

INITIAL WX
   WEATHER: TAF_AMD_OMRK
   COMMENTS: 020240Z 0202/0306 VRB02KT 8000 NSC 
40% PROBABILITY OF WX FROM 02Z TO 04Z
   VISIBILITY: 2.5 MILES
   WEATHER: HZ
WX BECOMING FROM 04Z TO 06Z
   WINDS: 100 AT 10
WX BECOMING FROM 08Z TO 10Z
   WINDS: 350 AT 13
WX BECOMING FROM 14Z TO 16Z
   WIND: VARIABLE AT 2
   COMMENTS: = 

INITIAL WX
   WEATHER: TAF_AMD_OMRK
   COMMENTS: 020240Z 0202/0306 VRB02KT 8000 NSC 
40% PROBABILITY OF WX FROM 02Z TO 04Z
   VISIBILITY: 2.5 MILES
   WEATHER: HZ
WX BECOMING FROM 04Z TO 06Z
   WINDS: 100 AT 10
WX BECOMING FROM 08Z TO 10Z
   WINDS: 350 AT 13
WX BECOMING FROM 14Z TO 16Z
   WIND: VARIABLE AT 2
   COMMENTS: = 

INITIAL WX
   WEATHER: TAF_AMD_CYHZ
   COMMENTS: 020310Z 0203/0224 11005KT 6SM BR BKN015 
TEMPORARY WX FROM 03Z TO 05Z
   VISIBILITY: 4.0 MILES
   WEATHER: BR
   CLOUDS: 7 BKN
NEW WX STARTING: 05:00Z
   WIND: VARIABLE AT 3
   VISIBILITY: 0.8 MILES
   WEATHER: -DZ_BR
   CLOUDS: 3 OVC
TEMPORARY WX FROM 05Z TO 14Z
   VISIBILITY: 3.0 MILES
   WEATHER: BR
   CLOUDS: 5 OVC
40% PROBABILITY OF WX FROM 07Z TO 12Z
   VISIBILITY: 0.2 MILES
   WEATHER: FG
   VERTICAL VISIBILITY: 1
NEW WX STARTING: 14:00Z
   WINDS: 150 AT 7
   VISIBILITY: >6.0 MILES
   CLOUDS: 7 OVC
NEW WX STARTING: 18:00Z
   WINDS: 180 AT 5
   VISIBILITY: >6.0 MILES
   CLOUDS: 15 BKN
NEW WX STARTING: 22:00Z
   WINDS: 200 AT 7
   VISIBILITY: 6.0 MILES
   WEATHER: BR
   CLOUDS: 5 BKN
   COMMENTS: RMK NXT FCST BY 020600Z= 

PIREP - Pilot Weather Report
LLET - Eilat,
Updated at 3:50 AM GMT on September 02, 2014 (6:50 AM IDT):
No PIREP is currently available for this location.
AIRMET - Airmens Meteorological Information
LLET - Eilat,
Updated at 3:50 AM GMT on September 02, 2014 (6:50 AM IDT):
No AIRMET is currently available for this location.
SIGMET - Significant Meteorological Information
LLET - Eilat,
Updated at 3:50 AM GMT on September 02, 2014 (6:50 AM IDT):
No SIGMET is currently available for this location.
NOTAM - Notice to Airmen
LLET - Eilat,
Updated at 3:50 AM GMT on September 02, 2014 (6:50 AM IDT):
No NOTAM is currently available for this location.
Forecast Area
LLET - Eilat,
Updated at 3:50 AM GMT on September 02, 2014 (6:50 AM IDT):
No NOTAM is currently available for this location.
Aviation Weather Maps